Daily Summary for October 19, 2020 Units:  Both    English   Metric
Daily Weekly Monthly Yearly
  High: Low: Average:
Temperature: 69.8 °F /  21 °C 49.8 °F /  9.9 °C 58.3 °F /  14.6 °C
Dew Point: 49.8 °F /  9.9 °C 44.2 °F /  6.8 °C 47.5 °F /  8.6 °C
Humidity: 89% 44.1% 69%
Wind Speed: 7.2mph /  11.6km/h - 2.9mph /  4.7km/h
Wind Gust: 17mph /  27.4km/h - -
Wind- - SSE
Pressure: 30 in /  1017.3 hPa 29.9 in /  1013.2 hPa -
Precipitation: 0 in /  0.0 mm    
 
 
Tabular Data for October 19, 2020
Time Temperature Dew Point Pressure Wind Wind Speed Wind Gust Humidity Rainfall Rate (Hourly) solar
00:04 53.2 °F /  11.8 °C 48.7 °F /  9.3 °C 29.9in /  1013.9hPa ESE 2mph /  3.2km/h 7mph /  11.3km/h 85% 0in /  0.0mm 0 W/m2
00:09 52.9 °F /  11.6 °C 48.7 °F /  9.3 °C 29.9in /  1013.9hPa ESE 2mph /  3.2km/h 9mph /  14.5km/h 85.5% 0in /  0.0mm 0 W/m2
00:14 52.7 °F /  11.5 °C 48.4 °F /  9.1 °C 29.9in /  1013.9hPa ESE 2.8mph /  4.5km/h 9mph /  14.5km/h 85.3% 0in /  0.0mm 0 W/m2
00:19 52.7 °F /  11.5 °C 48.6 °F /  9.2 °C 29.9in /  1013.9hPa ESE 4mph /  6.4km/h 9mph /  14.5km/h 86% 0in /  0.0mm 0 W/m2
00:24 52.5 °F /  11.4 °C 48.4 °F /  9.1 °C 29.9in /  1013.9hPa ESE 3.4mph /  5.5km/h 9mph /  14.5km/h 86% 0in /  0.0mm 0 W/m2
00:29 52.3 °F /  11.3 °C 48.2 °F /  9 °C 29.9in /  1013.9hPa ESE 3mph /  4.8km/h 8mph /  12.9km/h 86% 0in /  0.0mm 0 W/m2
00:34 52.2 °F /  11.2 °C 48.2 °F /  9 °C 29.9in /  1013.9hPa ESE 3mph /  4.8km/h 8mph /  12.9km/h 86% 0in /  0.0mm 0 W/m2
00:39 52.2 °F /  11.2 °C 48 °F /  8.9 °C 29.9in /  1013.9hPa ESE 3mph /  4.8km/h 9mph /  14.5km/h 86% 0in /  0.0mm 0 W/m2
00:44 52.2 °F /  11.2 °C 48 °F /  8.9 °C 29.9in /  1014.0hPa ESE 3mph /  4.8km/h 9mph /  14.5km/h 86% 0in /  0.0mm 0 W/m2
00:49 52 °F /  11.1 °C 47.8 °F /  8.8 °C 29.9in /  1014.0hPa ESE 3mph /  4.8km/h 9mph /  14.5km/h 86% 0in /  0.0mm 0 W/m2
00:54 52 °F /  11.1 °C 47.8 °F /  8.8 °C 29.9in /  1013.9hPa ESE 3.8mph /  6.1km/h 10mph /  16.1km/h 86% 0in /  0.0mm 0 W/m2
00:59 51.8 °F /  11 °C 47.7 °F /  8.7 °C 29.9in /  1013.9hPa ESE 3.2mph /  5.1km/h 10mph /  16.1km/h 86% 0in /  0.0mm 0 W/m2
01:04 51.6 °F /  10.9 °C 47.8 °F /  8.8 °C 29.9in /  1013.9hPa ESE 3mph /  4.8km/h 10mph /  16.1km/h 86.9% 0in /  0.0mm 0 W/m2
01:09 51.4 °F /  10.8 °C 47.8 °F /  8.8 °C 29.9in /  1014.0hPa ESE 3mph /  4.8km/h 7mph /  11.3km/h 87% 0in /  0.0mm 0 W/m2
01:14 51.4 °F /  10.8 °C 47.7 °F /  8.7 °C 29.9in /  1013.9hPa ESE 3mph /  4.8km/h 7mph /  11.3km/h 87% 0in /  0.0mm 0 W/m2
01:19 51.4 °F /  10.8 °C 47.7 °F /  8.7 °C 29.9in /  1013.9hPa SE 2.2mph /  3.5km/h 7mph /  11.3km/h 87% 0in /  0.0mm 0 W/m2
01:24 51.3 °F /  10.7 °C 47.5 °F /  8.6 °C 29.9in /  1013.8hPa ESE 2mph /  3.2km/h 7mph /  11.3km/h 87% 0in /  0.0mm 0 W/m2
01:29 51.1 °F /  10.6 °C 47.5 °F /  8.6 °C 29.9in /  1013.8hPa ESE 2.8mph /  4.5km/h 7mph /  11.3km/h 87% 0in /  0.0mm 0 W/m2
01:34 51.1 °F /  10.6 °C 47.3 °F /  8.5 °C 29.9in /  1013.9hPa ESE 3mph /  4.8km/h 7mph /  11.3km/h 87% 0in /  0.0mm 0 W/m2
01:39 51.1 °F /  10.6 °C 47.5 °F /  8.6 °C 29.9in /  1013.9hPa ESE 2.4mph /  3.8km/h 7mph /  11.3km/h 87.4% 0in /  0.0mm 0 W/m2
01:44 50.9 °F /  10.5 °C 47.3 °F /  8.5 °C 29.9in /  1013.8hPa ESE 2mph /  3.2km/h 7mph /  11.3km/h 87.5% 0in /  0.0mm 0 W/m2
01:49 50.7 °F /  10.4 °C 47.5 °F /  8.6 °C 29.9in /  1013.8hPa ESE 2mph /  3.2km/h 6mph /  9.7km/h 88% 0in /  0.0mm 0 W/m2
01:54 50.7 °F /  10.4 °C 47.3 °F /  8.5 °C 29.9in /  1013.8hPa ESE 2mph /  3.2km/h 6mph /  9.7km/h 88% 0in /  0.0mm 0 W/m2
01:59 50.7 °F /  10.4 °C 47.3 °F /  8.5 °C 29.9in /  1013.7hPa ESE 2mph /  3.2km/h 6mph /  9.7km/h 88% 0in /  0.0mm 0 W/m2
02:04 50.7 °F /  10.4 °C 47.3 °F /  8.5 °C 29.9in /  1013.6hPa ESE 2mph /  3.2km/h 6mph /  9.7km/h 88% 0in /  0.0mm 0 W/m2
02:09 50.5 °F /  10.3 °C 47.1 °F /  8.4 °C 29.9in /  1013.5hPa ESE 1.2mph /  1.9km/h 6mph /  9.7km/h 88% 0in /  0.0mm 0 W/m2
02:14 50.5 °F /  10.3 °C 47.1 °F /  8.4 °C 29.9in /  1013.5hPa ESE 1mph /  1.6km/h 6mph /  9.7km/h 88% 0in /  0.0mm 0 W/m2
02:19 50.5 °F /  10.3 °C 47.1 °F /  8.4 °C 29.9in /  1013.5hPa ESE 1.4mph /  2.3km/h 6mph /  9.7km/h 88% 0in /  0.0mm 0 W/m2
02:24 50.7 °F /  10.4 °C 47.3 °F /  8.5 °C 29.9in /  1013.6hPa ESE 2mph /  3.2km/h 6mph /  9.7km/h 88% 0in /  0.0mm 0 W/m2
02:29 50.7 °F /  10.4 °C 47.3 °F /  8.5 °C 29.9in /  1013.5hPa ESE 1.8mph /  2.9km/h 6mph /  9.7km/h 88% 0in /  0.0mm 0 W/m2
02:34 50.9 °F /  10.5 °C 47.3 °F /  8.5 °C 29.9in /  1013.5hPa ESE 1.4mph /  2.3km/h 4mph /  6.4km/h 87.4% 0in /  0.0mm 0 W/m2
02:39 50.9 °F /  10.5 °C 47.1 °F /  8.4 °C 29.9in /  1013.4hPa ESE 1mph /  1.6km/h 4mph /  6.4km/h 87% 0in /  0.0mm 0 W/m2
02:44 50.7 °F /  10.4 °C 47.1 °F /  8.4 °C 29.9in /  1013.4hPa East 1.8mph /  2.9km/h 6mph /  9.7km/h 87% 0in /  0.0mm 0 W/m2
02:49 50.7 °F /  10.4 °C 46.9 °F /  8.3 °C 29.9in /  1013.3hPa ESE 2mph /  3.2km/h 6mph /  9.7km/h 87% 0in /  0.0mm 0 W/m2
02:54 50.7 °F /  10.4 °C 46.9 °F /  8.3 °C 29.9in /  1013.3hPa SE 2mph /  3.2km/h 6mph /  9.7km/h 87% 0in /  0.0mm 0 W/m2
02:59 50.5 °F /  10.3 °C 46.8 °F /  8.2 °C 29.9in /  1013.3hPa SE 1mph /  1.6km/h 5mph /  8km/h 87% 0in /  0.0mm 0 W/m2
03:04 50.4 °F /  10.2 °C 46.8 °F /  8.2 °C 29.9in /  1013.2hPa SE 1mph /  1.6km/h 5mph /  8km/h 87% 0in /  0.0mm 0 W/m2
03:09 50.4 °F /  10.2 °C 46.8 °F /  8.2 °C 29.9in /  1013.3hPa ESE 1mph /  1.6km/h 4mph /  6.4km/h 87.6% 0in /  0.0mm 0 W/m2
03:14 50.2 °F /  10.1 °C 46.8 °F /  8.2 °C 29.9in /  1013.4hPa SE 1mph /  1.6km/h 2mph /  3.2km/h 88% 0in /  0.0mm 0 W/m2
03:19 50.2 °F /  10.1 °C 46.8 °F /  8.2 °C 29.9in /  1013.3hPa SE 1mph /  1.6km/h 2mph /  3.2km/h 88% 0in /  0.0mm 0 W/m2
03:24 50 °F /  10 °C 46.6 °F /  8.1 °C 29.9in /  1013.2hPa Calm   2mph /  3.2km/h 88% 0in /  0.0mm 0 W/m2
03:29 49.8 °F /  9.9 °C 46.6 °F /  8.1 °C 29.9in /  1013.4hPa SE 0.4mph /  0.6km/h 3mph /  4.8km/h 88.2% 0in /  0.0mm 0 W/m2
03:34 49.8 °F /  9.9 °C 46.8 °F /  8.2 °C 29.9in /  1013.5hPa SE 1mph /  1.6km/h 3mph /  4.8km/h 89% 0in /  0.0mm 0 W/m2
03:39 50 °F /  10 °C 46.8 °F /  8.2 °C 29.9in /  1013.5hPa SSE 1mph /  1.6km/h 3mph /  4.8km/h 89% 0in /  0.0mm 0 W/m2
03:44 50 °F /  10 °C 46.9 °F /  8.3 °C 29.9in /  1013.5hPa SSE 1mph /  1.6km/h 4mph /  6.4km/h 89% 0in /  0.0mm 0 W/m2
03:49 50.4 °F /  10.2 °C 47.3 °F /  8.5 °C 29.9in /  1013.6hPa South 1mph /  1.6km/h 4mph /  6.4km/h 89% 0in /  0.0mm 0 W/m2
03:54 50.5 °F /  10.3 °C 47.5 °F /  8.6 °C 29.9in /  1013.6hPa SSW 2mph /  3.2km/h 4mph /  6.4km/h 89% 0in /  0.0mm 0 W/m2
03:59 50.7 °F /  10.4 °C 47.5 °F /  8.6 °C 29.9in /  1013.6hPa SSW 1.8mph /  2.9km/h 4mph /  6.4km/h 88.3% 0in /  0.0mm 0 W/m2
04:04 50.7 °F /  10.4 °C 47.5 °F /  8.6 °C 29.9in /  1013.7hPa SSW 1.6mph /  2.5km/h 4mph /  6.4km/h 88% 0in /  0.0mm 0 W/m2
04:09 50.9 °F /  10.5 °C 47.5 °F /  8.6 °C 29.9in /  1013.6hPa SSW 0.8mph /  1.3km/h 4mph /  6.4km/h 88% 0in /  0.0mm 0 W/m2
04:14 51.1 °F /  10.6 °C 47.7 °F /  8.7 °C 29.9in /  1013.7hPa SSW 0.2mph /  0.3km/h 3mph /  4.8km/h 88% 0in /  0.0mm 0 W/m2
04:19 51.3 °F /  10.7 °C 47.7 °F /  8.7 °C 29.9in /  1013.8hPa SSW 1mph /  1.6km/h 3mph /  4.8km/h 87.4% 0in /  0.0mm 0 W/m2
04:24 51.3 °F /  10.7 °C 47.7 °F /  8.7 °C 29.9in /  1013.8hPa SSW 1.4mph /  2.2km/h 3mph /  4.8km/h 87% 0in /  0.0mm 0 W/m2
04:29 51.4 °F /  10.8 °C 47.7 °F /  8.7 °C 29.9in /  1013.8hPa SSW 1.2mph /  2km/h 3mph /  4.8km/h 87% 0in /  0.0mm 0 W/m2
04:34 51.4 °F /  10.8 °C 47.7 °F /  8.7 °C 29.9in /  1013.8hPa SSW 0.8mph /  1.3km/h 3mph /  4.8km/h 87% 0in /  0.0mm 0 W/m2
04:39 51.4 °F /  10.8 °C 47.8 °F /  8.8 °C 29.9in /  1013.8hPa Calm   2mph /  3.2km/h 87% 0in /  0.0mm 0 W/m2
04:44 51.4 °F /  10.8 °C 47.8 °F /  8.8 °C 29.9in /  1013.9hPa SSW 0.8mph /  1.3km/h 3mph /  4.8km/h 87% 0in /  0.0mm 0 W/m2
04:49 51.6 °F /  10.9 °C 47.8 °F /  8.8 °C 29.9in /  1013.9hPa SSW 1.6mph /  2.5km/h 4mph /  6.4km/h 87% 0in /  0.0mm 0 W/m2
04:54 51.6 °F /  10.9 °C 47.8 °F /  8.8 °C 29.9in /  1013.9hPa SSW 2mph /  3.2km/h 4mph /  6.4km/h 87% 0in /  0.0mm 0 W/m2
04:59 51.6 °F /  10.9 °C 48 °F /  8.9 °C 29.9in /  1013.9hPa SSW 2mph /  3.2km/h 4mph /  6.4km/h 87% 0in /  0.0mm 0 W/m2
05:04 51.6 °F /  10.9 °C 48 °F /  8.9 °C 29.9in /  1013.9hPa SSW 1.6mph /  2.6km/h 5mph /  8km/h 87% 0in /  0.0mm 0 W/m2
05:09 51.6 °F /  10.9 °C 48 °F /  8.9 °C 29.9in /  1013.9hPa SSW 2mph /  3.2km/h 5mph /  8km/h 87% 0in /  0.0mm 0 W/m2
05:14 51.6 °F /  10.9 °C 47.8 °F /  8.8 °C 29.9in /  1013.9hPa SSW 2mph /  3.2km/h 5mph /  8km/h 87% 0in /  0.0mm 0 W/m2
05:19 51.6 °F /  10.9 °C 47.8 °F /  8.8 °C 29.9in /  1013.9hPa SSW 1.4mph /  2.3km/h 4mph /  6.4km/h 87% 0in /  0.0mm 0 W/m2
05:24 51.6 °F /  10.9 °C 47.8 °F /  8.8 °C 29.9in /  1014.0hPa SSW 1mph /  1.6km/h 4mph /  6.4km/h 87% 0in /  0.0mm 0 W/m2
05:29 51.6 °F /  10.9 °C 48 °F /  8.9 °C 29.9in /  1014.0hPa SSW 1mph /  1.6km/h 3mph /  4.8km/h 87.2% 0in /  0.0mm 0 W/m2
05:34 51.6 °F /  10.9 °C 47.8 °F /  8.8 °C 29.9in /  1014.0hPa SSW 1mph /  1.6km/h 3mph /  4.8km/h 87% 0in /  0.0mm 0 W/m2
05:39 51.6 °F /  10.9 °C 48 °F /  8.9 °C 29.9in /  1014.0hPa SSW 0.8mph /  1.3km/h 3mph /  4.8km/h 87% 0in /  0.0mm 0 W/m2
05:44 51.8 °F /  11 °C 48 °F /  8.9 °C 29.9in /  1014.0hPa Calm   2mph /  3.2km/h 87% 0in /  0.0mm 0 W/m2
05:49 51.8 °F /  11 °C 48 °F /  8.9 °C 29.9in /  1014.0hPa SSW 0.4mph /  0.6km/h 3mph /  4.8km/h 87% 0in /  0.0mm 0 W/m2
05:54 51.8 °F /  11 °C 48.2 °F /  9 °C 29.9in /  1014.0hPa SSW 1mph /  1.6km/h 3mph /  4.8km/h 87% 0in /  0.0mm 0 W/m2
05:59 51.8 °F /  11 °C 48 °F /  8.9 °C 30in /  1014.2hPa SSW 1mph /  1.6km/h 3mph /  4.8km/h 86.6% 0in /  0.0mm 0 W/m2
06:04 51.8 °F /  11 °C 47.8 °F /  8.8 °C 30in /  1014.2hPa SSW 1mph /  1.6km/h 3mph /  4.8km/h 86.2% 0in /  0.0mm 0 W/m2
06:09 52 °F /  11.1 °C 47.8 °F /  8.8 °C 30in /  1014.3hPa SSW 1mph /  1.6km/h 3mph /  4.8km/h 86% 0in /  0.0mm 0 W/m2
06:14 52 °F /  11.1 °C 47.8 °F /  8.8 °C 30in /  1014.2hPa SSW 1mph /  1.6km/h 3mph /  4.8km/h 86% 0in /  0.0mm 0 W/m2
06:19 52 °F /  11.1 °C 47.8 °F /  8.8 °C 30in /  1014.2hPa SSW 1mph /  1.6km/h 3mph /  4.8km/h 86% 0in /  0.0mm 0 W/m2
06:24 52 °F /  11.1 °C 48 °F /  8.9 °C 30in /  1014.2hPa Calm   2mph /  3.2km/h 86.3% 0in /  0.0mm 5 W/m2
06:29 51.8 °F /  11 °C 48.2 °F /  9 °C 30in /  1014.2hPa Calm   2mph /  3.2km/h 87% 0in /  0.0mm 9 W/m2
06:34 51.8 °F /  11 °C 48.2 °F /  9 °C 30in /  1014.2hPa Calm   1mph /  1.6km/h 87% 0in /  0.0mm 14 W/m2
06:39 51.8 °F /  11 °C 48 °F /  8.9 °C 30in /  1014.3hPa Calm   2mph /  3.2km/h 87% 0in /  0.0mm 18 W/m2
06:44 51.8 °F /  11 °C 48 °F /  8.9 °C 30in /  1014.3hPa Calm   2mph /  3.2km/h 87% 0in /  0.0mm 25 W/m2
06:49 51.8 °F /  11 °C 48.2 °F /  9 °C 30in /  1014.3hPa Calm   2mph /  3.2km/h 87.5% 0in /  0.0mm 32 W/m2
06:54 51.8 °F /  11 °C 48.4 °F /  9.1 °C 30in /  1014.3hPa Calm     88% 0in /  0.0mm 44 W/m2
06:59 51.8 °F /  11 °C 48.4 °F /  9.1 °C 30in /  1014.5hPa Calm   1mph /  1.6km/h 88% 0in /  0.0mm 46 W/m2
07:04 51.8 °F /  11 °C 48.4 °F /  9.1 °C 30in /  1014.5hPa Calm   1mph /  1.6km/h 87.7% 0in /  0.0mm 47 W/m2
07:09 52.2 °F /  11.2 °C 48.7 °F /  9.3 °C 30in /  1014.6hPa Calm   2mph /  3.2km/h 87.8% 0in /  0.0mm 53 W/m2
07:14 52.3 °F /  11.3 °C 48.7 °F /  9.3 °C 30in /  1014.7hPa SW 1mph /  1.6km/h 3mph /  4.8km/h 87.3% 0in /  0.0mm 81 W/m2
07:19 52.5 °F /  11.4 °C 48.6 °F /  9.2 °C 30in /  1014.7hPa NW 1mph /  1.6km/h 3mph /  4.8km/h 86.3% 0in /  0.0mm 118 W/m2
07:24 52.9 °F /  11.6 °C 48.9 °F /  9.4 °C 30in /  1014.7hPa NE 1.6mph /  2.5km/h 7mph /  11.3km/h 86.2% 0in /  0.0mm 281 W/m2
07:29 53.2 °F /  11.8 °C 48.7 °F /  9.3 °C 30in /  1014.7hPa NE 2.2mph /  3.5km/h 7mph /  11.3km/h 84.7% 0in /  0.0mm 292 W/m2
07:34 53.6 °F /  12 °C 48.7 °F /  9.3 °C 30in /  1014.7hPa NE 2.6mph /  4.2km/h 7mph /  11.3km/h 83.4% 0in /  0.0mm 292 W/m2
07:39 54 °F /  12.2 °C 48.6 °F /  9.2 °C 30in /  1014.7hPa NE 2.2mph /  3.5km/h 6mph /  9.7km/h 82.2% 0in /  0.0mm 283 W/m2
07:44 54 °F /  12.2 °C 48.6 °F /  9.2 °C 30in /  1014.8hPa ENE 2mph /  3.2km/h 6mph /  9.7km/h 81.8% 0in /  0.0mm 287 W/m2
07:49 54 °F /  12.2 °C 48.4 °F /  9.1 °C 30in /  1014.9hPa NE 2.4mph /  3.9km/h 6mph /  9.7km/h 81.4% 0in /  0.0mm 246 W/m2
07:54 53.8 °F /  12.1 °C 48 °F /  8.9 °C 30in /  1014.9hPa NE 3mph /  4.8km/h 8mph /  12.9km/h 80.5% 0in /  0.0mm 339 W/m2
07:59 54 °F /  12.2 °C 48 °F /  8.9 °C 30in /  1014.9hPa NE 4mph /  6.4km/h 9mph /  14.5km/h 80.5% 0in /  0.0mm 357 W/m2
08:04 54 °F /  12.2 °C 47.8 °F /  8.8 °C 30in /  1014.9hPa NE 4.2mph /  6.8km/h 11mph /  17.7km/h 79.7% 0in /  0.0mm 378 W/m2
08:09 54 °F /  12.2 °C 48 °F /  8.9 °C 30in /  1014.9hPa NE 4.6mph /  7.4km/h 11mph /  17.7km/h 80% 0in /  0.0mm 394 W/m2
08:14 54.5 °F /  12.5 °C 48 °F /  8.9 °C 30in /  1014.9hPa NE 3.6mph /  5.8km/h 11mph /  17.7km/h 78.8% 0in /  0.0mm 411 W/m2
08:19 54.3 °F /  12.4 °C 47.8 °F /  8.8 °C 30in /  1014.9hPa NE 3mph /  4.8km/h 8mph /  12.9km/h 78.7% 0in /  0.0mm 429 W/m2
08:24 54.3 °F /  12.4 °C 47.7 °F /  8.7 °C 30in /  1015.0hPa NE 3.6mph /  5.8km/h 8mph /  12.9km/h 78.4% 0in /  0.0mm 582 W/m2
08:29 54.5 °F /  12.5 °C 48 °F /  8.9 °C 30in /  1015.1hPa NE 4mph /  6.4km/h 8mph /  12.9km/h 78.4% 0in /  0.0mm 582 W/m2
08:34 54.5 °F /  12.5 °C 47.8 °F /  8.8 °C 30in /  1015.1hPa NE 3.8mph /  6.1km/h 8mph /  12.9km/h 78.2% 0in /  0.0mm 295 W/m2
08:39 54.5 °F /  12.5 °C 47.5 °F /  8.6 °C 30in /  1015.1hPa NE 3mph /  4.8km/h 8mph /  12.9km/h 77.3% 0in /  0.0mm 227 W/m2
08:44 54.3 °F /  12.4 °C 47.8 °F /  8.8 °C 30in /  1015.2hPa NE 2mph /  3.2km/h 5mph /  8km/h 78.3% 0in /  0.0mm 236 W/m2
08:49 54.7 °F /  12.6 °C 48.2 °F /  9 °C 30in /  1015.2hPa ENE 2mph /  3.2km/h 5mph /  8km/h 78.8% 0in /  0.0mm 230 W/m2
08:54 54.5 °F /  12.5 °C 47.8 °F /  8.8 °C 30in /  1015.2hPa ENE 2.6mph /  4.2km/h 5mph /  8km/h 77.9% 0in /  0.0mm 211 W/m2
08:59 54.7 °F /  12.6 °C 47.7 °F /  8.7 °C 30in /  1015.3hPa ENE 2mph /  3.2km/h 5mph /  8km/h 77.6% 0in /  0.0mm 255 W/m2
09:04 54.9 °F /  12.7 °C 47.8 °F /  8.8 °C 30in /  1015.4hPa NE 2mph /  3.2km/h 5mph /  8km/h 77.5% 0in /  0.0mm 322 W/m2
09:09 55.6 °F /  13.1 °C 48.4 °F /  9.1 °C 30in /  1015.4hPa NE 2.4mph /  3.9km/h 5mph /  8km/h 77.2% 0in /  0.0mm 663 W/m2
09:14 55.8 °F /  13.2 °C 48 °F /  8.9 °C 30in /  1015.4hPa NE 2.6mph /  4.2km/h 5mph /  8km/h 75.5% 0in /  0.0mm 236 W/m2
09:19 55.4 °F /  13 °C 48 °F /  8.9 °C 30in /  1015.4hPa NE 2.6mph /  4.2km/h 7mph /  11.3km/h 76% 0in /  0.0mm 745 W/m2
09:24 55.9 °F /  13.3 °C 48.2 °F /  9 °C 30in /  1015.4hPa NE 2.6mph /  4.2km/h 7mph /  11.3km/h 74.9% 0in /  0.0mm 752 W/m2
09:29 57.4 °F /  14.1 °C 49.1 °F /  9.5 °C 30in /  1015.4hPa NE 2.2mph /  3.5km/h 7mph /  11.3km/h 73.9% 0in /  0.0mm 786 W/m2
09:34 57.9 °F /  14.4 °C 49.1 °F /  9.5 °C 30in /  1015.4hPa NE 2.8mph /  4.5km/h 7mph /  11.3km/h 72.7% 0in /  0.0mm 803 W/m2
09:39 58.6 °F /  14.8 °C 49.6 °F /  9.8 °C 30in /  1015.4hPa ENE 3mph /  4.8km/h 7mph /  11.3km/h 71.8% 0in /  0.0mm 817 W/m2
09:44 59 °F /  15 °C 49.3 °F /  9.6 °C 30in /  1015.5hPa ENE 3mph /  4.8km/h 7mph /  11.3km/h 70.2% 0in /  0.0mm 824 W/m2
09:49 59 °F /  15 °C 48.6 °F /  9.2 °C 30in /  1015.5hPa ENE 3mph /  4.8km/h 7mph /  11.3km/h 68.3% 0in /  0.0mm 867 W/m2
09:54 58.1 °F /  14.5 °C 47.8 °F /  8.8 °C 30in /  1015.5hPa NE 3mph /  4.8km/h 6mph /  9.7km/h 68.8% 0in /  0.0mm 867 W/m2
09:59 56.8 °F /  13.8 °C 47.8 °F /  8.8 °C 30in /  1015.5hPa NNE 3mph /  4.8km/h 6mph /  9.7km/h 71.5% 0in /  0.0mm 274 W/m2
10:04 56.7 °F /  13.7 °C 47.7 °F /  8.7 °C 30in /  1015.5hPa NNE 2.4mph /  3.9km/h 5mph /  8km/h 71.9% 0in /  0.0mm 506 W/m2
10:09 58.3 °F /  14.6 °C 48.7 °F /  9.3 °C 30in /  1015.5hPa NNE 2.6mph /  4.2km/h 8mph /  12.9km/h 70.9% 0in /  0.0mm 930 W/m2
10:14 59.9 °F /  15.5 °C 49.6 °F /  9.8 °C 30in /  1015.5hPa NE 3mph /  4.8km/h 8mph /  12.9km/h 69.1% 0in /  0.0mm 868 W/m2
10:19 60.6 °F /  15.9 °C 49.1 °F /  9.5 °C 30in /  1015.5hPa NE 3mph /  4.8km/h 8mph /  12.9km/h 65.9% 0in /  0.0mm 891 W/m2
10:24 60.8 °F /  16 °C 47.8 °F /  8.8 °C 30in /  1015.5hPa NE 3.2mph /  5.1km/h 7mph /  11.3km/h 62.5% 0in /  0.0mm 930 W/m2
10:29 60.6 °F /  15.9 °C 47.7 °F /  8.7 °C 30in /  1015.5hPa NE 3.8mph /  6.1km/h 7mph /  11.3km/h 62.5% 0in /  0.0mm 946 W/m2
10:34 61.2 °F /  16.2 °C 48 °F /  8.9 °C 30in /  1015.5hPa ENE 3.2mph /  5.1km/h 7mph /  11.3km/h 62% 0in /  0.0mm 954 W/m2
10:39 61.7 °F /  16.5 °C 47.3 °F /  8.5 °C 30in /  1015.5hPa East 3mph /  4.8km/h 7mph /  11.3km/h 59.1% 0in /  0.0mm 998 W/m2
10:44 62.1 °F /  16.7 °C 47.3 °F /  8.5 °C 30in /  1015.5hPa ENE 2.4mph /  3.9km/h 6mph /  9.7km/h 58.7% 0in /  0.0mm 1013 W/m2
10:49 61.3 °F /  16.3 °C 47.1 °F /  8.4 °C 30in /  1015.4hPa NNE 3mph /  4.8km/h 6mph /  9.7km/h 59.4% 0in /  0.0mm 1049 W/m2
10:54 62.2 °F /  16.8 °C 47.5 °F /  8.6 °C 30in /  1015.4hPa NNE 3mph /  4.8km/h 8mph /  12.9km/h 58.7% 0in /  0.0mm 1046 W/m2
10:59 62.6 °F /  17 °C 47.1 °F /  8.4 °C 30in /  1015.4hPa North 3mph /  4.8km/h 8mph /  12.9km/h 57.1% 0in /  0.0mm 1144 W/m2
11:04 63.5 °F /  17.5 °C 48 °F /  8.9 °C 30in /  1015.4hPa North 2.8mph /  4.5km/h 8mph /  12.9km/h 57.3% 0in /  0.0mm 1278 W/m2
11:09 64.2 °F /  17.9 °C 48 °F /  8.9 °C 30in /  1015.3hPa NNE 2mph /  3.2km/h 6mph /  9.7km/h 55.6% 0in /  0.0mm 1206 W/m2
11:14 64.4 °F /  18 °C 46.9 °F /  8.3 °C 30in /  1015.3hPa NE 2mph /  3.2km/h 6mph /  9.7km/h 53.1% 0in /  0.0mm 1136 W/m2
11:19 63.7 °F /  17.6 °C 45.7 °F /  7.6 °C 30in /  1015.3hPa NE 2mph /  3.2km/h 6mph /  9.7km/h 52% 0in /  0.0mm 438 W/m2
11:24 62.2 °F /  16.8 °C 44.2 °F /  6.8 °C 30in /  1015.2hPa NE 2mph /  3.2km/h 4mph /  6.4km/h 52% 0in /  0.0mm 427 W/m2
11:29 61.5 °F /  16.4 °C 45.3 °F /  7.4 °C 30in /  1015.3hPa NNE 2mph /  3.2km/h 4mph /  6.4km/h 55.2% 0in /  0.0mm 427 W/m2
11:34 61 °F /  16.1 °C 45.5 °F /  7.5 °C 30in /  1015.2hPa NNW 2mph /  3.2km/h 4mph /  6.4km/h 56.8% 0in /  0.0mm 396 W/m2
11:39 60.6 °F /  15.9 °C 45.1 °F /  7.3 °C 30in /  1015.2hPa WNW 1.8mph /  2.9km/h 4mph /  6.4km/h 56.7% 0in /  0.0mm 367 W/m2
11:44 60.6 °F /  15.9 °C 45.1 °F /  7.3 °C 30in /  1015.2hPa WNW 1mph /  1.6km/h 6mph /  9.7km/h 56.7% 0in /  0.0mm 336 W/m2
11:49 60.8 °F /  16 °C 45.3 °F /  7.4 °C 30in /  1015.3hPa WNW 1.4mph /  2.3km/h 6mph /  9.7km/h 56.8% 0in /  0.0mm 341 W/m2
11:54 61.5 °F /  16.4 °C 45.1 °F /  7.3 °C 30in /  1015.2hPa WSW 1.8mph /  2.9km/h 6mph /  9.7km/h 54.8% 0in /  0.0mm 364 W/m2
11:59 62.1 °F /  16.7 °C 46.2 °F /  7.9 °C 30in /  1015.2hPa SSE 1mph /  1.6km/h 5mph /  8km/h 56.3% 0in /  0.0mm 404 W/m2
12:04 61.9 °F /  16.6 °C 46 °F /  7.8 °C 30in /  1015.2hPa SSE 1mph /  1.6km/h 3mph /  4.8km/h 56.2% 0in /  0.0mm 392 W/m2
12:09 62.4 °F /  16.9 °C 46.2 °F /  7.9 °C 30in /  1015.2hPa SSE 1mph /  1.6km/h 3mph /  4.8km/h 55.5% 0in /  0.0mm 371 W/m2
12:11 61.5 °F /  16.4 °C 46 °F /  7.8 °C 30in /  1015.1hPa SE 1mph /  1.6km/h 5mph /  8km/h 56.8% 0in /  0.0mm 387 W/m2
12:19 62.1 °F /  16.7 °C 47.5 °F /  8.6 °C 30in /  1015.1hPa South 2mph /  3.2km/h 6mph /  9.7km/h 59% 0in /  0.0mm 570 W/m2
12:24 62.1 °F /  16.7 °C 46 °F /  7.8 °C 30in /  1015.1hPa SSW 2mph /  3.2km/h 7mph /  11.3km/h 55.9% 0in /  0.0mm 1107 W/m2
12:29 62.2 °F /  16.8 °C 46.2 °F /  7.9 °C 30in /  1015.1hPa SSW 3mph /  4.8km/h 7mph /  11.3km/h 55.7% 0in /  0.0mm 1387 W/m2
12:34 63.1 °F /  17.3 °C 46.9 °F /  8.3 °C 30in /  1015.0hPa WSW 2.4mph /  3.9km/h 7mph /  11.3km/h 55.5% 0in /  0.0mm 473 W/m2
12:39 62.2 °F /  16.8 °C 45.5 °F /  7.5 °C 30in /  1015.0hPa NW 2mph /  3.2km/h 7mph /  11.3km/h 54.3% 0in /  0.0mm 381 W/m2
12:44 61.2 °F /  16.2 °C 45.7 °F /  7.6 °C 30in /  1015.0hPa NW 2mph /  3.2km/h 7mph /  11.3km/h 56.5% 0in /  0.0mm 424 W/m2
12:49 62.6 °F /  17 °C 47.3 °F /  8.5 °C 30in /  1015.0hPa NW 2mph /  3.2km/h 7mph /  11.3km/h 57.1% 0in /  0.0mm 392 W/m2
12:54 63 °F /  17.2 °C 47.3 °F /  8.5 °C 30in /  1015.0hPa NW 1.8mph /  2.9km/h 4mph /  6.4km/h 56.7% 0in /  0.0mm 392 W/m2
12:59 62.2 °F /  16.8 °C 46 °F /  7.8 °C 30in /  1014.9hPa NW 2mph /  3.2km/h 7mph /  11.3km/h 55.3% 0in /  0.0mm 1183 W/m2
13:04 62.6 °F /  17 °C 46.4 °F /  8 °C 30in /  1014.8hPa NW 2mph /  3.2km/h 7mph /  11.3km/h 55.6% 0in /  0.0mm 1183 W/m2
13:09 64.9 °F /  18.3 °C 47.8 °F /  8.8 °C 30in /  1014.9hPa NW 2.4mph /  3.9km/h 7mph /  11.3km/h 53.8% 0in /  0.0mm 1097 W/m2
13:14 64.9 °F /  18.3 °C 46 °F /  7.8 °C 30in /  1014.9hPa NNW 3mph /  4.8km/h 9mph /  14.5km/h 50.3% 0in /  0.0mm 1053 W/m2
13:19 64.8 °F /  18.2 °C 46.8 °F /  8.2 °C 30in /  1014.9hPa North 3mph /  4.8km/h 9mph /  14.5km/h 52.1% 0in /  0.0mm 1046 W/m2
13:24 66.9 °F /  19.4 °C 47.7 °F /  8.7 °C 30in /  1014.8hPa North 2.4mph /  3.9km/h 9mph /  14.5km/h 50% 0in /  0.0mm 1042 W/m2
13:29 66 °F /  18.9 °C 46.2 °F /  7.9 °C 30in /  1014.8hPa NNE 2.2mph /  3.5km/h 9mph /  14.5km/h 48.9% 0in /  0.0mm 1030 W/m2
13:34 66 °F /  18.9 °C 46.4 °F /  8 °C 30in /  1014.8hPa NNE 2.4mph /  3.9km/h 9mph /  14.5km/h 49.4% 0in /  0.0mm 1018 W/m2
13:39 67.3 °F /  19.6 °C 46.8 °F /  8.2 °C 30in /  1014.7hPa NNE 2mph /  3.2km/h 9mph /  14.5km/h 47.8% 0in /  0.0mm 1000 W/m2
13:44 65.5 °F /  18.6 °C 45.7 °F /  7.6 °C 30in /  1014.7hPa North 2.2mph /  3.5km/h 6mph /  9.7km/h 48.7% 0in /  0.0mm 984 W/m2
13:49 65.7 °F /  18.7 °C 46.8 °F /  8.2 °C 30in /  1014.6hPa NNW 3mph /  4.8km/h 6mph /  9.7km/h 50.4% 0in /  0.0mm 977 W/m2
13:54 66.7 °F /  19.3 °C 46.2 °F /  7.9 °C 30in /  1014.5hPa North 2mph /  3.2km/h 6mph /  9.7km/h 47.4% 0in /  0.0mm 972 W/m2
13:59 68.5 °F /  20.3 °C 46.9 °F /  8.3 °C 30in /  1014.5hPa ENE 2.2mph /  3.5km/h 12mph /  19.3km/h 46.3% 0in /  0.0mm 1014 W/m2
14:04 68.2 °F /  20.1 °C 46.2 °F /  7.9 °C 30in /  1014.5hPa NNE 3.8mph /  6.1km/h 12mph /  19.3km/h 45.5% 0in /  0.0mm 1014 W/m2
14:09 67.6 °F /  19.8 °C 45.9 °F /  7.7 °C 30in /  1014.5hPa NNE 5.4mph /  8.7km/h 14mph /  22.5km/h 45.4% 0in /  0.0mm 997 W/m2
14:14 67.1 °F /  19.5 °C 45.9 °F /  7.7 °C 30in /  1014.5hPa NNE 5mph /  8km/h 14mph /  22.5km/h 46.6% 0in /  0.0mm 940 W/m2
14:19 66.7 °F /  19.3 °C 45.7 °F /  7.6 °C 30in /  1014.5hPa North 4.4mph /  7.1km/h 14mph /  22.5km/h 46.7% 0in /  0.0mm 925 W/m2
14:24 66.9 °F /  19.4 °C 46.2 °F /  7.9 °C 30in /  1014.4hPa NNW 4.2mph /  6.8km/h 12mph /  19.3km/h 47.1% 0in /  0.0mm 921 W/m2
14:29 66.6 °F /  19.2 °C 46.6 °F /  8.1 °C 30in /  1014.4hPa NNW 4.6mph /  7.4km/h 12mph /  19.3km/h 48.4% 0in /  0.0mm 900 W/m2
14:34 67.1 °F /  19.5 °C 47.8 °F /  8.8 °C 30in /  1014.4hPa NW 5mph /  8km/h 12mph /  19.3km/h 50.1% 0in /  0.0mm 895 W/m2
14:39 66.4 °F /  19.1 °C 46.9 °F /  8.3 °C 30in /  1014.4hPa NW 5mph /  8km/h 11mph /  17.7km/h 49.5% 0in /  0.0mm 884 W/m2
14:44 68 °F /  20 °C 48.6 °F /  9.2 °C 30in /  1014.3hPa NNW 4.4mph /  7.1km/h 11mph /  17.7km/h 49.8% 0in /  0.0mm 877 W/m2
14:49 67.6 °F /  19.8 °C 47.5 °F /  8.6 °C 30in /  1014.3hPa NW 3mph /  4.8km/h 10mph /  16.1km/h 48.6% 0in /  0.0mm 884 W/m2
14:54 67.3 °F /  19.6 °C 48 °F /  8.9 °C 30in /  1014.3hPa NW 4.2mph /  6.8km/h 11mph /  17.7km/h 49.8% 0in /  0.0mm 872 W/m2
14:59 66.9 °F /  19.4 °C 46.8 °F /  8.2 °C 30in /  1014.2hPa NW 5mph /  8km/h 11mph /  17.7km/h 48.4% 0in /  0.0mm 835 W/m2
15:04 68 °F /  20 °C 47.7 °F /  8.7 °C 29.9in /  1014.1hPa NW 4.2mph /  6.8km/h 11mph /  17.7km/h 48.2% 0in /  0.0mm 819 W/m2
15:09 67.8 °F /  19.9 °C 46.2 °F /  7.9 °C 29.9in /  1014.0hPa NNW 4.4mph /  7.1km/h 11mph /  17.7km/h 46% 0in /  0.0mm 809 W/m2
15:14 68.4 °F /  20.2 °C 45.9 °F /  7.7 °C 29.9in /  1014.0hPa North 5.2mph /  8.4km/h 11mph /  17.7km/h 44.5% 0in /  0.0mm 789 W/m2
15:19 68.9 °F /  20.5 °C 48.2 °F /  9 °C 29.9in /  1013.9hPa NNE 5mph /  8km/h 12mph /  19.3km/h 47.6% 0in /  0.0mm 775 W/m2
15:24 68.7 °F /  20.4 °C 47.7 °F /  8.7 °C 29.9in /  1013.8hPa NNE 5mph /  8km/h 12mph /  19.3km/h 47.1% 0in /  0.0mm 763 W/m2
15:29 68.9 °F /  20.5 °C 47.8 °F /  8.8 °C 29.9in /  1013.8hPa NNE 4.8mph /  7.7km/h 12mph /  19.3km/h 46.8% 0in /  0.0mm 751 W/m2
15:34 68.5 °F /  20.3 °C 47.1 °F /  8.4 °C 29.9in /  1013.8hPa North 5mph /  8km/h 12mph /  19.3km/h 46.3% 0in /  0.0mm 737 W/m2
15:39 67.8 °F /  19.9 °C 46.6 °F /  8.1 °C 29.9in /  1013.9hPa NNW 5.6mph /  9km/h 16mph /  25.7km/h 46.4% 0in /  0.0mm 717 W/m2
15:44 67.3 °F /  19.6 °C 45.5 °F /  7.5 °C 29.9in /  1013.8hPa NW 7mph /  11.3km/h 16mph /  25.7km/h 45.6% 0in /  0.0mm 705 W/m2
15:49 67.5 °F /  19.7 °C 45.9 °F /  7.7 °C 29.9in /  1013.8hPa NNW 6.8mph /  10.9km/h 16mph /  25.7km/h 46% 0in /  0.0mm 689 W/m2
15:54 67.3 °F /  19.6 °C 46.4 °F /  8 °C 29.9in /  1013.8hPa NNW 6mph /  9.7km/h 15mph /  24.1km/h 47.2% 0in /  0.0mm 673 W/m2
15:59 67.6 °F /  19.8 °C 46.4 °F /  8 °C 29.9in /  1013.7hPa NNW 6mph /  9.7km/h 15mph /  24.1km/h 46.3% 0in /  0.0mm 661 W/m2
16:04 68.9 °F /  20.5 °C 46.4 °F /  8 °C 29.9in /  1013.6hPa North 5.4mph /  8.7km/h 15mph /  24.1km/h 44.5% 0in /  0.0mm 645 W/m2
16:09 68.9 °F /  20.5 °C 46.2 °F /  7.9 °C 29.9in /  1013.6hPa NNE 5.8mph /  9.3km/h 12mph /  19.3km/h 44.1% 0in /  0.0mm 631 W/m2
16:14 69.6 °F /  20.9 °C 47.5 °F /  8.6 °C 29.9in /  1013.5hPa NNE 6mph /  9.7km/h 12mph /  19.3km/h 45.2% 0in /  0.0mm 612 W/m2
16:19 69.8 °F /  21 °C 47.5 °F /  8.6 °C 29.9in /  1013.5hPa NNE 6mph /  9.7km/h 13mph /  20.9km/h 44.9% 0in /  0.0mm 594 W/m2
16:24 69.1 °F /  20.6 °C 47.3 °F /  8.5 °C 29.9in /  1013.5hPa NNE 6.4mph /  10.3km/h 13mph /  20.9km/h 45.7% 0in /  0.0mm 578 W/m2
16:29 68.4 °F /  20.2 °C 46.9 °F /  8.3 °C 29.9in /  1013.5hPa North 7.2mph /  11.6km/h 13mph /  20.9km/h 46.3% 0in /  0.0mm 564 W/m2
16:34 68 °F /  20 °C 47.3 °F /  8.5 °C 29.9in /  1013.5hPa NNW 6.4mph /  10.3km/h 13mph /  20.9km/h 47.5% 0in /  0.0mm 545 W/m2
16:39 68.9 °F /  20.5 °C 47.1 °F /  8.4 °C 29.9in /  1013.5hPa NNW 4.7mph /  7.5km/h 13mph /  20.9km/h 46% 0in /  0.0mm 527 W/m2
16:44 69.1 °F /  20.6 °C 46.9 °F /  8.3 °C 29.9in /  1013.5hPa North 4.6mph /  7.4km/h 10mph /  16.1km/h 45.1% 0in /  0.0mm 512 W/m2
16:49 68.7 °F /  20.4 °C 46.9 °F /  8.3 °C 29.9in /  1013.4hPa North 5.2mph /  8.4km/h 10mph /  16.1km/h 45.8% 0in /  0.0mm 490 W/m2
16:54 68.4 °F /  20.2 °C 47.8 °F /  8.8 °C 29.9in /  1013.4hPa North 4.8mph /  7.7km/h 10mph /  16.1km/h 48% 0in /  0.0mm 475 W/m2
16:59 69.4 °F /  20.8 °C 47.7 °F /  8.7 °C 29.9in /  1013.4hPa North 4.8mph /  7.7km/h 10mph /  16.1km/h 46% 0in /  0.0mm 461 W/m2
17:04 69.6 °F /  20.9 °C 47.5 °F /  8.6 °C 29.9in /  1013.4hPa North 5.4mph /  8.7km/h 11mph /  17.7km/h 45.3% 0in /  0.0mm 443 W/m2
17:09 68.9 °F /  20.5 °C 46.6 °F /  8.1 °C 29.9in /  1013.5hPa North 5mph /  8km/h 11mph /  17.7km/h 45% 0in /  0.0mm 422 W/m2
17:14 68.9 °F /  20.5 °C 47.3 °F /  8.5 °C 29.9in /  1013.5hPa North 4.4mph /  7.1km/h 11mph /  17.7km/h 46% 0in /  0.0mm 403 W/m2
17:19 68.5 °F /  20.3 °C 46.9 °F /  8.3 °C 29.9in /  1013.6hPa North 5.4mph /  8.7km/h 12mph /  19.3km/h 46.2% 0in /  0.0mm 383 W/m2
17:24 67.6 °F /  19.8 °C 46.9 °F /  8.3 °C 29.9in /  1013.5hPa NNW 6mph /  9.7km/h 12mph /  19.3km/h 47.4% 0in /  0.0mm 366 W/m2
17:29 68.5 °F /  20.3 °C 46.8 °F /  8.2 °C 29.9in /  1013.6hPa NNW 6mph /  9.7km/h 12mph /  19.3km/h 45.8% 0in /  0.0mm 345 W/m2
17:34 68.9 °F /  20.5 °C 46.6 °F /  8.1 °C 29.9in /  1013.7hPa North 5.6mph /  9km/h 11mph /  17.7km/h 44.5% 0in /  0.0mm 325 W/m2
17:39 68.5 °F /  20.3 °C 46.6 °F /  8.1 °C 29.9in /  1013.7hPa North 5.2mph /  8.4km/h 11mph /  17.7km/h 45.5% 0in /  0.0mm 297 W/m2
17:44 67.6 °F /  19.8 °C 46.4 °F /  8 °C 29.9in /  1013.8hPa North 4.4mph /  7.1km/h 11mph /  17.7km/h 46.3% 0in /  0.0mm 271 W/m2
17:49 67.5 °F /  19.7 °C 46.6 °F /  8.1 °C 29.9in /  1013.8hPa NNW 4.2mph /  6.8km/h 10mph /  16.1km/h 47% 0in /  0.0mm 244 W/m2
17:54 68.2 °F /  20.1 °C 46.6 °F /  8.1 °C 29.9in /  1013.8hPa North 4.8mph /  7.7km/h 10mph /  16.1km/h 46.3% 0in /  0.0mm 218 W/m2
17:59 67.8 °F /  19.9 °C 46.2 °F /  7.9 °C 29.9in /  1013.8hPa North 5.4mph /  8.7km/h 10mph /  16.1km/h 45.8% 0in /  0.0mm 195 W/m2
18:04 67.8 °F /  19.9 °C 46.4 °F /  8 °C 29.9in /  1013.9hPa North 6mph /  9.7km/h 10mph /  16.1km/h 46% 0in /  0.0mm 174 W/m2
18:09 66.9 °F /  19.4 °C 45.9 °F /  7.7 °C 29.9in /  1013.9hPa North 5mph /  8.1km/h 10mph /  16.1km/h 46.7% 0in /  0.0mm 156 W/m2
18:14 66.4 °F /  19.1 °C 45.9 °F /  7.7 °C 29.9in /  1013.8hPa NNW 5mph /  8km/h 10mph /  16.1km/h 47.5% 0in /  0.0mm 139 W/m2
18:19 66.6 °F /  19.2 °C 45.9 °F /  7.7 °C 29.9in /  1013.9hPa NNW 5mph /  8km/h 10mph /  16.1km/h 47.5% 0in /  0.0mm 121 W/m2
18:24 66.9 °F /  19.4 °C 46.8 °F /  8.2 °C 29.9in /  1013.8hPa North 4.8mph /  7.8km/h 10mph /  16.1km/h 48.2% 0in /  0.0mm 105 W/m2
18:29 67.5 °F /  19.7 °C 46.8 °F /  8.2 °C 29.9in /  1013.9hPa North 4mph /  6.4km/h 9mph /  14.5km/h 47.6% 0in /  0.0mm 91 W/m2
18:34 66.7 °F /  19.3 °C 46.8 °F /  8.2 °C 29.9in /  1013.9hPa North 4mph /  6.4km/h 9mph /  14.5km/h 48.4% 0in /  0.0mm 77 W/m2
18:39 66.2 °F /  19 °C 46.9 °F /  8.3 °C 29.9in /  1013.9hPa North 5mph /  8km/h 9mph /  14.5km/h 49.9% 0in /  0.0mm 65 W/m2
18:44 66 °F /  18.9 °C 46.9 °F /  8.3 °C 29.9in /  1014.0hPa North 4mph /  6.5km/h 9mph /  14.5km/h 50.5% 0in /  0.0mm 54 W/m2
18:49 65.1 °F /  18.4 °C 46.4 °F /  8 °C 29.9in /  1014.0hPa North 3.8mph /  6.1km/h 9mph /  14.5km/h 50.8% 0in /  0.0mm 40 W/m2
18:54 64.9 °F /  18.3 °C 46.6 °F /  8.1 °C 29.9in /  1014.0hPa NNW 4mph /  6.4km/h 9mph /  14.5km/h 51.3% 0in /  0.0mm 28 W/m2
18:59 64.8 °F /  18.2 °C 46.4 °F /  8 °C 29.9in /  1014.1hPa North 4mph /  6.4km/h 9mph /  14.5km/h 51.5% 0in /  0.0mm 19 W/m2
19:04 64.6 °F /  18.1 °C 46.4 °F /  8 °C 30in /  1014.2hPa North 4mph /  6.4km/h 8mph /  12.9km/h 51.9% 0in /  0.0mm 16 W/m2
19:09 64.2 °F /  17.9 °C 46.4 °F /  8 °C 30in /  1014.3hPa North 3mph /  4.9km/h 8mph /  12.9km/h 52.3% 0in /  0.0mm 14 W/m2
19:14 64 °F /  17.8 °C 46.2 °F /  7.9 °C 30in /  1014.4hPa North 3.8mph /  6.1km/h 6mph /  9.7km/h 52.2% 0in /  0.0mm 11 W/m2
19:19 63.5 °F /  17.5 °C 46.4 °F /  8 °C 30in /  1014.4hPa North 3.6mph /  5.8km/h 6mph /  9.7km/h 53.5% 0in /  0.0mm 9 W/m2
19:24 63.3 °F /  17.4 °C 46.4 °F /  8 °C 30in /  1014.3hPa North 3mph /  4.8km/h 5mph /  8km/h 54.2% 0in /  0.0mm 5 W/m2
19:29 63 °F /  17.2 °C 46.6 °F /  8.1 °C 30in /  1014.4hPa North 3mph /  4.8km/h 5mph /  8km/h 55% 0in /  0.0mm 0 W/m2
19:34 62.8 °F /  17.1 °C 46.8 °F /  8.2 °C 30in /  1014.4hPa North 3mph /  4.8km/h 4mph /  6.4km/h 55.8% 0in /  0.0mm 0 W/m2
19:39 62.6 °F /  17 °C 46.8 °F /  8.2 °C 30in /  1014.5hPa North 3mph /  4.8km/h 4mph /  6.4km/h 56.3% 0in /  0.0mm 0 W/m2
19:44 62.4 °F /  16.9 °C 46.9 °F /  8.3 °C 30in /  1014.5hPa North 2.8mph /  4.5km/h 4mph /  6.4km/h 57% 0in /  0.0mm 0 W/m2
19:49 62.2 °F /  16.8 °C 46.9 °F /  8.3 °C 30in /  1014.6hPa North 3mph /  4.8km/h 4mph /  6.4km/h 57.4% 0in /  0.0mm 0 W/m2
19:54 62.1 °F /  16.7 °C 47.1 °F /  8.4 °C 30in /  1014.7hPa North 3mph /  4.8km/h 4mph /  6.4km/h 58% 0in /  0.0mm 0 W/m2
19:59 61.9 °F /  16.6 °C 47.1 °F /  8.4 °C 30in /  1014.7hPa North 2.2mph /  3.6km/h 4mph /  6.4km/h 58.5% 0in /  0.0mm 0 W/m2
20:04 61.5 °F /  16.4 °C 47.1 °F /  8.4 °C 30in /  1014.7hPa North 2mph /  3.2km/h 4mph /  6.4km/h 59% 0in /  0.0mm 0 W/m2
20:09 61.3 °F /  16.3 °C 47.1 °F /  8.4 °C 30in /  1014.9hPa NNE 2mph /  3.2km/h 4mph /  6.4km/h 59.6% 0in /  0.0mm 0 W/m2
20:14 61 °F /  16.1 °C 46.9 °F /  8.3 °C 30in /  1014.9hPa NNE 2mph /  3.2km/h 4mph /  6.4km/h 60% 0in /  0.0mm 0 W/m2
20:19 61 °F /  16.1 °C 46.9 °F /  8.3 °C 30in /  1014.8hPa NNE 2mph /  3.2km/h 3mph /  4.8km/h 60% 0in /  0.0mm 0 W/m2
20:24 60.4 °F /  15.8 °C 47.1 °F /  8.4 °C 30in /  1014.9hPa NNE 2mph /  3.2km/h 4mph /  6.4km/h 61.4% 0in /  0.0mm 0 W/m2
20:29 59.9 °F /  15.5 °C 46.9 °F /  8.3 °C 30in /  1014.9hPa NNE 2mph /  3.2km/h 4mph /  6.4km/h 62.2% 0in /  0.0mm 0 W/m2
20:34 59.4 °F /  15.2 °C 46.9 °F /  8.3 °C 30in /  1015.0hPa NE 2mph /  3.2km/h 4mph /  6.4km/h 63.3% 0in /  0.0mm 0 W/m2
20:39 59 °F /  15 °C 46.9 °F /  8.3 °C 30in /  1015.1hPa NE 1.4mph /  2.3km/h 4mph /  6.4km/h 64% 0in /  0.0mm 0 W/m2
20:44 58.8 °F /  14.9 °C 46.8 °F /  8.2 °C 30in /  1015.1hPa NE 0.8mph /  1.3km/h 3mph /  4.8km/h 64.3% 0in /  0.0mm 0 W/m2
20:49 58.6 °F /  14.8 °C 46.9 °F /  8.3 °C 30in /  1015.4hPa ENE 1mph /  1.6km/h 9mph /  14.5km/h 65.4% 0in /  0.0mm 0 W/m2
20:54 57.9 °F /  14.4 °C 47.3 °F /  8.5 °C 30in /  1015.5hPa ENE 2.4mph /  3.8km/h 10mph /  16.1km/h 67.5% 0in /  0.0mm 0 W/m2
20:59 57.6 °F /  14.2 °C 48 °F /  8.9 °C 30in /  1015.6hPa ENE 4mph /  6.4km/h 12mph /  19.3km/h 70.4% 0in /  0.0mm 0 W/m2
21:04 58.1 °F /  14.5 °C 48.9 °F /  9.4 °C 30in /  1015.7hPa ENE 4.8mph /  7.7km/h 12mph /  19.3km/h 71.3% 0in /  0.0mm 0 W/m2
21:09 58.3 °F /  14.6 °C 49.3 °F /  9.6 °C 30in /  1015.8hPa ENE 4.8mph /  7.8km/h 17mph /  27.4km/h 72% 0in /  0.0mm 0 W/m2
21:14 58.1 °F /  14.5 °C 49.6 °F /  9.8 °C 30in /  1016.0hPa East 5.2mph /  8.3km/h 17mph /  27.4km/h 73.3% 0in /  0.0mm 0 W/m2
21:19 57.7 °F /  14.3 °C 49.8 °F /  9.9 °C 30in /  1016.0hPa East 6mph /  9.7km/h 17mph /  27.4km/h 74.8% 0in /  0.0mm 0 W/m2
21:24 57.2 °F /  14 °C 49.6 °F /  9.8 °C 30in /  1016.1hPa East 5.2mph /  8.4km/h 13mph /  20.9km/h 76% 0in /  0.0mm 0 W/m2
21:29 56.7 °F /  13.7 °C 49.5 °F /  9.7 °C 30in /  1016.1hPa East 5mph /  8km/h 15mph /  24.1km/h 77% 0in /  0.0mm 0 W/m2
21:34 56.1 °F /  13.4 °C 49.3 °F /  9.6 °C 30in /  1016.2hPa East 5.2mph /  8.3km/h 15mph /  24.1km/h 77.7% 0in /  0.0mm 0 W/m2
21:39 55.8 °F /  13.2 °C 48.9 °F /  9.4 °C 30in /  1016.2hPa East 6mph /  9.7km/h 15mph /  24.1km/h 78% 0in /  0.0mm 0 W/m2
21:44 55.4 °F /  13 °C 48.9 °F /  9.4 °C 30in /  1016.4hPa East 6mph /  9.7km/h 14mph /  22.5km/h 78.8% 0in /  0.0mm 0 W/m2
21:49 55.2 °F /  12.9 °C 48.7 °F /  9.3 °C 30in /  1016.4hPa East 6mph /  9.7km/h 15mph /  24.1km/h 79% 0in /  0.0mm 0 W/m2
21:54 55 °F /  12.8 °C 48.6 °F /  9.2 °C 30in /  1016.5hPa East 6.2mph /  10km/h 15mph /  24.1km/h 79.3% 0in /  0.0mm 0 W/m2
21:59 54.7 °F /  12.6 °C 48.6 °F /  9.2 °C 30in /  1016.5hPa East 6mph /  9.7km/h 15mph /  24.1km/h 80% 0in /  0.0mm 0 W/m2
22:04 54.5 °F /  12.5 °C 48.6 °F /  9.2 °C 30in /  1016.5hPa East 5.4mph /  8.7km/h 14mph /  22.5km/h 80.1% 0in /  0.0mm 0 W/m2
22:09 54.3 °F /  12.4 °C 48.6 °F /  9.2 °C 30in /  1016.6hPa East 5.6mph /  9km/h 14mph /  22.5km/h 81% 0in /  0.0mm 0 W/m2
22:14 54.1 °F /  12.3 °C 48.4 °F /  9.1 °C 30in /  1016.7hPa East 5mph /  8km/h 11mph /  17.7km/h 81% 0in /  0.0mm 0 W/m2
22:19 54 °F /  12.2 °C 48.2 °F /  9 °C 30in /  1016.7hPa East 4.8mph /  7.7km/h 12mph /  19.3km/h 81% 0in /  0.0mm 0 W/m2
22:24 53.6 °F /  12 °C 48 °F /  8.9 °C 30in /  1016.7hPa East 5.4mph /  8.7km/h 12mph /  19.3km/h 81.3% 0in /  0.0mm 0 W/m2
22:29 53.6 °F /  12 °C 48.2 °F /  9 °C 30in /  1016.8hPa East 6mph /  9.7km/h 12mph /  19.3km/h 82% 0in /  0.0mm 0 W/m2
22:34 53.4 °F /  11.9 °C 48 °F /  8.9 °C 30in /  1016.8hPa East 5.6mph /  9km/h 12mph /  19.3km/h 82% 0in /  0.0mm 0 W/m2
22:39 53.2 °F /  11.8 °C 47.8 °F /  8.8 °C 30in /  1016.8hPa East 5mph /  8km/h 13mph /  20.9km/h 82% 0in /  0.0mm 0 W/m2
22:44 53.1 °F /  11.7 °C 47.8 °F /  8.8 °C 30in /  1016.8hPa East 5.2mph /  8.4km/h 13mph /  20.9km/h 82.5% 0in /  0.0mm 0 W/m2
22:49 53.1 °F /  11.7 °C 48 °F /  8.9 °C 30in /  1017.0hPa East 4mph /  6.5km/h 13mph /  20.9km/h 83% 0in /  0.0mm 0 W/m2
22:54 53.1 °F /  11.7 °C 48 °F /  8.9 °C 30in /  1017.1hPa ESE 2.6mph /  4.2km/h 9mph /  14.5km/h 83% 0in /  0.0mm 0 W/m2
22:59 53.1 °F /  11.7 °C 48 °F /  8.9 °C 30in /  1017.1hPa SE 2.6mph /  4.2km/h 8mph /  12.9km/h 83% 0in /  0.0mm 0 W/m2
23:04 53.2 °F /  11.8 °C 48.2 °F /  9 °C 30in /  1017.1hPa SE 3mph /  4.8km/h 8mph /  12.9km/h 83% 0in /  0.0mm 0 W/m2
23:09 53.2 °F /  11.8 °C 48.4 °F /  9.1 °C 30in /  1017.1hPa SE 2mph /  3.2km/h 8mph /  12.9km/h 83% 0in /  0.0mm 0 W/m2
23:14 53.2 °F /  11.8 °C 48.2 °F /  9 °C 30in /  1017.1hPa SE 2mph /  3.2km/h 8mph /  12.9km/h 82.8% 0in /  0.0mm 0 W/m2
23:19 53.4 °F /  11.9 °C 48.2 °F /  9 °C 30in /  1017.1hPa SE 2.2mph /  3.5km/h 8mph /  12.9km/h 82.5% 0in /  0.0mm 0 W/m2
23:24 53.6 °F /  12 °C 48.2 °F /  9 °C 30in /  1017.2hPa SE 2.4mph /  3.8km/h 7mph /  11.3km/h 82% 0in /  0.0mm 0 W/m2
23:29 53.6 °F /  12 °C 48.2 °F /  9 °C 30in /  1017.2hPa SE 3mph /  4.8km/h 7mph /  11.3km/h 82% 0in /  0.0mm 0 W/m2
23:34 53.6 °F /  12 °C 48.2 °F /  9 °C 30in /  1017.2hPa SE 3mph /  4.8km/h 7mph /  11.3km/h 82% 0in /  0.0mm 0 W/m2
23:39 53.6 °F /  12 °C 48.2 °F /  9 °C 30in /  1017.2hPa ESE 2.4mph /  3.9km/h 7mph /  11.3km/h 82% 0in /  0.0mm 0 W/m2
23:44 53.6 °F /  12 °C 48.2 °F /  9 °C 30in /  1017.2hPa SE 3mph /  4.8km/h 7mph /  11.3km/h 82% 0in /  0.0mm 0 W/m2
23:49 53.6 °F /  12 °C 48.2 °F /  9 °C 30in /  1017.2hPa SE 2.8mph /  4.5km/h 7mph /  11.3km/h 82% 0in /  0.0mm 0 W/m2
23:54 53.6 °F /  12 °C 48.2 °F /  9 °C 30in /  1017.3hPa SE 2.2mph /  3.5km/h 7mph /  11.3km/h 82% 0in /  0.0mm 0 W/m2
23:59 53.6 °F /  12 °C 48.2 °F /  9 °C 30in /  1017.3hPa ESE 2mph /  3.2km/h 7mph /  11.3km/h 82% 0in /  0.0mm 0 W/m2
Compliments of Weather Underground - 1.5 mb

Latitude S 35° 13' 00" Longitude E 149° 01' 22" Elevation 577 m
Page updated 31/10/2020 1:05:03 AM.
Powered by Cumulus MX v3.2.0 (3056)